Time;durP1;ratioP1;P1;durP2;ratioP2;P2;SDS_P1;SDS_P2;PMS_P1;PMS_P2;Temp;Humidity;BMP_temperature;BMP_pressure;BME280_temperature;BME280_humidity;BME280_pressure;Samples;Min_cycle;Max_cycle;Signal;HPM_P1;HPM_P2
2023/05/27 00:01:12;;;;;;;;;;;;;;;17.31;49.59;98998.97;7376862;19;19914;-78
2023/05/27 00:03:40;;;;;;;;;;;;;;;17.23;48.69;98989.19;7378352;19;19987;-78
2023/05/27 00:06:06;;;;;;;;;;;;;;;17.27;49.69;98997.66;7379375;19;19918;-79
2023/05/27 00:08:33;;;;;;;;;;;;;;;17.29;49.20;98987.63;7383180;19;19923;-78
2023/05/27 00:11:00;;;;;;;;;;;;;;;17.30;48.76;98991.97;7378360;19;19922;-79
2023/05/27 00:13:26;;;;;;;;;;;;;;;17.32;48.78;98993.47;7378511;19;20364;-79
2023/05/27 00:15:53;;;;;;;;;;;;;;;17.33;48.93;98997.78;7377079;19;19918;-78
2023/05/27 00:18:21;;;;;;;;;;;;;;;17.31;47.37;98998.97;7381342;19;19915;-78
2023/05/27 00:20:48;;;;;;;;;;;;;;;17.31;49.16;98994.44;7380249;19;19929;-79
2023/05/27 00:23:15;;;;;;;;;;;;;;;17.27;49.59;99003.00;7377130;19;19938;-79
2023/05/27 00:25:41;;;;;;;;;;;;;;;17.28;49.26;99010.03;7383184;19;19919;-79
2023/05/27 00:28:08;;;;;;;;;;;;;;;17.22;49.80;99002.72;7375737;19;20351;-79
2023/05/27 00:30:35;;;;;;;;;;;;;;;17.16;49.30;98998.94;7380851;19;19926;-80
2023/05/27 00:33:02;;;;;;;;;;;;;;;17.16;49.42;98996.28;7372116;19;19970;-78
2023/05/27 00:35:28;;;;;;;;;;;;;;;17.07;48.96;98995.53;7376641;19;21367;-79
2023/05/27 00:37:58;;;;;;;;;;;;;;;17.05;49.75;99005.56;7373022;19;19922;-79
2023/05/27 00:40:26;;;;;;;;;;;;;;;16.89;48.42;99003.88;7379424;19;19956;-78
2023/05/27 00:42:52;;;;;;;;;;;;;;;16.91;48.52;98997.56;7370672;19;19919;-79
2023/05/27 00:45:19;;;;;;;;;;;;;;;16.86;50.32;98995.41;7380931;19;20446;-79
2023/05/27 00:47:46;;;;;;;;;;;;;;;16.90;51.54;99002.03;7376787;19;19978;-78
2023/05/27 00:50:13;;;;;;;;;;;;;;;16.87;49.49;98991.72;7372803;19;19911;-79
2023/05/27 00:52:40;;;;;;;;;;;;;;;16.76;49.90;99008.16;7376247;19;19926;-80
2023/05/27 00:55:07;;;;;;;;;;;;;;;16.69;50.65;99000.00;7376168;19;19927;-79
2023/05/27 00:57:33;;;;;;;;;;;;;;;16.63;50.90;98990.88;7379239;19;20333;-81
2023/05/27 01:00:00;;;;;;;;;;;;;;;16.64;51.32;98992.56;7377919;19;19930;-78
2023/05/27 01:02:27;;;;;;;;;;;;;;;16.63;50.77;98985.53;7379465;19;19919;-78
2023/05/27 01:04:54;;;;;;;;;;;;;;;16.63;51.62;98987.38;7375865;19;19934;-79
2023/05/27 01:07:20;;;;;;;;;;;;;;;16.55;52.87;98982.94;7376816;19;19919;-80
2023/05/27 01:09:55;;;;;;;;;;;;;;;16.45;51.12;98983.16;7381908;19;19923;-83
2023/05/27 01:12:32;;;;;;;;;;;;;;;16.52;51.88;98974.47;7381797;19;19948;-79
2023/05/27 01:14:58;;;;;;;;;;;;;;;16.51;50.47;98978.13;7378632;19;19923;-78
2023/05/27 01:17:26;;;;;;;;;;;;;;;16.51;51.64;98981.66;7379754;19;19919;-79
2023/05/27 01:19:53;;;;;;;;;;;;;;;16.50;52.50;98971.97;7376206;19;19919;-80
2023/05/27 01:22:20;;;;;;;;;;;;;;;16.44;50.71;98972.69;7374620;19;19923;-79
2023/05/27 01:24:47;;;;;;;;;;;;;;;16.41;52.73;98981.06;7374863;19;22438;-79
2023/05/27 01:27:15;;;;;;;;;;;;;;;16.36;51.65;98976.25;7373395;19;19978;-79
2023/05/27 01:29:42;;;;;;;;;;;;;;;16.34;51.71;98974.75;7376207;19;19944;-78
2023/05/27 01:32:10;;;;;;;;;;;;;;;16.23;50.94;98978.66;7375274;19;19934;-78
2023/05/27 01:34:42;;;;;;;;;;;;;;;16.21;51.88;98981.50;7381815;19;20298;-79
2023/05/27 01:37:09;;;;;;;;;;;;;;;16.23;53.69;98966.16;7374107;19;19927;-78
2023/05/27 01:39:36;;;;;;;;;;;;;;;16.17;52.44;98964.19;7377691;19;19940;-79
2023/05/27 01:42:03;;;;;;;;;;;;;;;16.14;53.64;98961.88;7370121;19;19943;-78
2023/05/27 01:44:30;;;;;;;;;;;;;;;16.08;52.80;98959.91;7374520;19;19927;-78
2023/05/27 01:47:00;;;;;;;;;;;;;;;16.04;53.86;98961.28;7373438;19;19947;-79
2023/05/27 01:49:28;;;;;;;;;;;;;;;15.94;52.61;98964.16;7377763;19;19923;-78
2023/05/27 01:51:55;;;;;;;;;;;;;;;15.98;53.66;98959.28;7373761;19;19915;-78
2023/05/27 01:54:22;;;;;;;;;;;;;;;15.93;53.38;98965.19;7380045;19;19922;-79
2023/05/27 01:56:48;;;;;;;;;;;;;;;15.94;53.53;98958.00;7375680;19;22379;-78
2023/05/27 01:59:15;;;;;;;;;;;;;;;15.92;54.80;98966.16;7367646;19;20013;-78
2023/05/27 02:01:42;;;;;;;;;;;;;;;15.87;53.21;98955.19;7371977;19;19939;-78
2023/05/27 02:04:08;;;;;;;;;;;;;;;15.88;55.40;98964.06;7373723;19;19947;-78
2023/05/27 02:06:36;;;;;;;;;;;;;;;15.71;53.19;98969.44;7374395;19;19918;-78
2023/05/27 02:09:03;;;;;;;;;;;;;;;15.73;54.19;98961.28;7374660;19;19958;-78
2023/05/27 02:11:29;;;;;;;;;;;;;;;15.72;55.00;98959.63;7380887;19;19925;-78
2023/05/27 02:13:56;;;;;;;;;;;;;;;15.64;53.35;98957.81;7372545;19;20020;-78
2023/05/27 02:16:23;;;;;;;;;;;;;;;15.63;54.22;98950.78;7366481;19;19911;-78
2023/05/27 02:18:50;;;;;;;;;;;;;;;15.63;53.61;98949.97;7379461;19;19933;-78
2023/05/27 02:21:17;;;;;;;;;;;;;;;15.67;55.29;98946.78;7372193;19;19951;-79
2023/05/27 02:23:43;;;;;;;;;;;;;;;15.65;56.88;98951.44;7375610;19;19931;-78
2023/05/27 02:26:10;;;;;;;;;;;;;;;15.60;56.10;98951.13;7368917;19;19939;-78
2023/05/27 02:28:37;;;;;;;;;;;;;;;15.52;55.86;98951.19;7375906;19;19922;-78
2023/05/27 02:31:04;;;;;;;;;;;;;;;15.46;54.25;98955.38;7371807;19;19931;-78
2023/05/27 02:33:31;;;;;;;;;;;;;;;15.48;55.69;98952.50;7378890;19;19938;-79
2023/05/27 02:35:58;;;;;;;;;;;;;;;15.42;54.98;98956.72;7384773;19;19938;-79
2023/05/27 02:38:25;;;;;;;;;;;;;;;15.33;54.29;98950.59;7381527;19;19978;-78
2023/05/27 02:40:51;;;;;;;;;;;;;;;15.34;55.70;98949.56;7381138;19;20464;-78
2023/05/27 02:43:19;;;;;;;;;;;;;;;15.31;55.20;98949.91;7375626;19;19918;-79
2023/05/27 02:45:47;;;;;;;;;;;;;;;15.32;55.90;98946.25;7379235;19;20367;-78
2023/05/27 02:48:13;;;;;;;;;;;;;;;15.30;55.11;98944.78;7372119;19;20517;-78
2023/05/27 02:50:40;;;;;;;;;;;;;;;15.21;54.78;98946.63;7375944;19;19982;-79
2023/05/27 02:53:07;;;;;;;;;;;;;;;15.21;57.16;98938.63;7373904;19;20271;-79
2023/05/27 02:55:34;;;;;;;;;;;;;;;15.26;55.51;98949.59;7381601;19;19919;-79
2023/05/27 02:58:00;;;;;;;;;;;;;;;15.24;55.64;98945.44;7374891;19;20318;-78
2023/05/27 03:00:30;;;;;;;;;;;;;;;15.21;55.68;98935.94;7377907;19;19922;-78
2023/05/27 03:02:56;;;;;;;;;;;;;;;15.16;55.37;98948.97;7379611;19;19919;-79
2023/05/27 03:05:24;;;;;;;;;;;;;;;15.12;55.21;98942.31;7374991;19;20788;-78
2023/05/27 03:07:50;;;;;;;;;;;;;;;15.09;55.46;98945.34;7373955;19;20380;-78
2023/05/27 03:10:17;;;;;;;;;;;;;;;15.15;56.49;98949.97;7375744;19;19918;-79
2023/05/27 03:12:44;;;;;;;;;;;;;;;15.16;56.44;98943.63;7378182;19;19922;-78
2023/05/27 03:15:10;;;;;;;;;;;;;;;15.12;57.37;98939.66;7378413;19;19915;-78
2023/05/27 03:17:38;;;;;;;;;;;;;;;14.99;56.16;98934.03;7379017;19;19937;-78
2023/05/27 03:20:07;;;;;;;;;;;;;;;15.01;57.62;98945.31;7376750;19;19948;-79
2023/05/27 03:22:37;;;;;;;;;;;;;;;15.03;57.87;98943.34;7374499;19;19919;-79
2023/05/27 03:25:04;;;;;;;;;;;;;;;15.00;57.59;98943.69;7372327;19;19911;-78
2023/05/27 03:27:31;;;;;;;;;;;;;;;14.98;57.77;98946.53;7378856;19;19947;-78
2023/05/27 03:30:03;;;;;;;;;;;;;;;14.92;57.50;98948.00;7372937;19;21295;-78
2023/05/27 03:32:30;;;;;;;;;;;;;;;14.93;56.98;98941.69;7376632;19;19919;-79
2023/05/27 03:34:57;;;;;;;;;;;;;;;14.95;58.46;98946.84;7380045;19;19931;-78
2023/05/27 03:37:24;;;;;;;;;;;;;;;14.93;57.47;98948.88;7375669;19;19919;-78
2023/05/27 03:40:01;;;;;;;;;;;;;;;14.85;57.26;98943.53;7372677;19;19911;-79
2023/05/27 03:42:30;;;;;;;;;;;;;;;14.82;57.16;98947.34;7375961;19;19982;-77
2023/05/27 03:44:58;;;;;;;;;;;;;;;14.84;57.85;98950.69;7374254;19;19929;-78
2023/05/27 03:47:26;;;;;;;;;;;;;;;14.81;57.66;98945.72;7375446;19;19918;-78
2023/05/27 03:49:53;;;;;;;;;;;;;;;14.86;58.67;98945.22;7381736;19;19934;-79
2023/05/27 03:52:20;;;;;;;;;;;;;;;14.84;57.88;98944.53;7372238;19;20329;-78
2023/05/27 03:54:47;;;;;;;;;;;;;;;14.71;57.73;98942.38;7377650;19;19926;-78
2023/05/27 03:57:14;;;;;;;;;;;;;;;14.76;58.68;98944.56;7368163;19;19940;-78
2023/05/27 03:59:41;;;;;;;;;;;;;;;14.79;58.49;98944.22;7377774;19;19929;-79
2023/05/27 04:02:08;;;;;;;;;;;;;;;14.73;57.77;98939.56;7375823;19;19919;-79
2023/05/27 04:04:35;;;;;;;;;;;;;;;14.73;58.42;98940.41;7377515;19;19958;-79
2023/05/27 04:07:02;;;;;;;;;;;;;;;14.75;59.03;98937.56;7374118;19;20914;-79
2023/05/27 04:09:29;;;;;;;;;;;;;;;14.69;58.51;98947.03;7374286;19;19915;-78
2023/05/27 04:11:58;;;;;;;;;;;;;;;14.74;59.39;98936.72;7376713;19;19960;-78
2023/05/27 04:14:24;;;;;;;;;;;;;;;14.74;59.05;98943.88;7370096;19;19919;-78
2023/05/27 04:16:52;;;;;;;;;;;;;;;14.63;57.65;98947.72;7379178;19;19919;-78
2023/05/27 04:19:19;;;;;;;;;;;;;;;14.64;58.04;98952.91;7377477;19;19982;-78
2023/05/27 04:21:46;;;;;;;;;;;;;;;14.68;58.77;98945.41;7375007;19;19918;-79
2023/05/27 04:24:13;;;;;;;;;;;;;;;14.64;59.15;98950.22;7371128;19;19927;-78
2023/05/27 04:26:40;;;;;;;;;;;;;;;14.64;58.27;98949.38;7380002;19;19919;-79
2023/05/27 04:29:11;;;;;;;;;;;;;;;14.67;60.04;98951.72;7373294;19;19922;-78
2023/05/27 04:31:38;;;;;;;;;;;;;;;14.73;60.40;98947.56;7375461;19;19929;-78
2023/05/27 04:34:11;;;;;;;;;;;;;;;14.75;59.09;98951.72;7374914;19;19970;-78
2023/05/27 04:36:39;;;;;;;;;;;;;;;14.71;58.25;98950.38;7375995;19;19911;-78
2023/05/27 04:39:11;;;;;;;;;;;;;;;14.71;58.68;98953.03;7375041;19;20316;-78
2023/05/27 04:41:41;;;;;;;;;;;;;;;14.76;58.58;98956.03;7377032;19;19967;-79
2023/05/27 04:44:29;;;;;;;;;;;;;;;14.77;59.39;98954.19;7377432;19;20390;-79
2023/05/27 04:46:58;;;;;;;;;;;;;;;14.85;59.50;98946.19;7374889;19;19925;-79
2023/05/27 04:49:26;;;;;;;;;;;;;;;14.87;58.34;98945.03;7375278;19;19982;-79
2023/05/27 04:51:54;;;;;;;;;;;;;;;14.75;58.88;98946.41;7371713;19;20199;-80
2023/05/27 04:54:21;;;;;;;;;;;;;;;14.77;61.09;98947.06;7375504;19;19918;-80
2023/05/27 04:56:51;;;;;;;;;;;;;;;14.85;62.10;98949.72;7379827;19;19936;-78
2023/05/27 04:59:45;;;;;;;;;;;;;;;14.79;59.39;98946.88;7387772;19;19921;-79
2023/05/27 05:02:21;;;;;;;;;;;;;;;14.78;60.01;98947.88;7383832;19;19922;-79
2023/05/27 05:05:03;;;;;;;;;;;;;;;14.70;59.23;98959.38;7385322;19;19926;-80
2023/05/27 05:07:30;;;;;;;;;;;;;;;14.75;60.00;98943.72;7381875;19;19938;-80
2023/05/27 05:09:57;;;;;;;;;;;;;;;14.75;59.48;98943.72;7388710;19;19922;-78
2023/05/27 05:12:31;;;;;;;;;;;;;;;14.69;59.39;98953.22;7367936;19;19919;-79
2023/05/27 05:14:57;;;;;;;;;;;;;;;14.77;60.23;98949.72;7375583;19;19919;-79
2023/05/27 05:17:25;;;;;;;;;;;;;;;14.90;59.38;98952.69;7387281;19;19923;-79
2023/05/27 05:19:52;;;;;;;;;;;;;;;14.93;58.59;98949.69;7386856;19;19915;-78
2023/05/27 05:22:20;;;;;;;;;;;;;;;15.07;59.69;98953.50;7385360;19;19978;-79
2023/05/27 05:24:48;;;;;;;;;;;;;;;15.17;60.20;98949.81;7387776;19;19930;-79
2023/05/27 05:27:16;;;;;;;;;;;;;;;15.14;59.88;98951.81;7387856;19;19955;-79
2023/05/27 05:29:42;;;;;;;;;;;;;;;15.18;59.32;98946.13;7389021;19;19982;-78
2023/05/27 05:32:11;;;;;;;;;;;;;;;15.22;59.51;98953.63;7383120;19;19914;-78
2023/05/27 05:34:38;;;;;;;;;;;;;;;15.20;59.12;98947.63;7385495;19;19949;-79
2023/05/27 05:37:10;;;;;;;;;;;;;;;15.15;58.72;98950.81;7376737;19;19942;-79
2023/05/27 05:39:38;;;;;;;;;;;;;;;15.24;61.16;98956.94;7384331;19;20623;-79
2023/05/27 05:42:05;;;;;;;;;;;;;;;15.35;59.96;98956.59;7385187;19;19943;-80
2023/05/27 05:44:34;;;;;;;;;;;;;;;15.23;58.71;98960.59;7380405;19;19929;-80
2023/05/27 05:47:01;;;;;;;;;;;;;;;15.32;59.56;98964.06;7380576;19;19923;-79
2023/05/27 05:49:28;;;;;;;;;;;;;;;15.30;58.70;98969.59;7379983;19;19914;-78
2023/05/27 05:51:56;;;;;;;;;;;;;;;15.35;58.38;98961.91;7386045;19;20316;-79
2023/05/27 05:54:23;;;;;;;;;;;;;;;15.37;58.44;98965.22;7381372;19;19942;-80
2023/05/27 05:56:54;;;;;;;;;;;;;;;15.36;58.60;98955.56;7382461;19;19919;-79
2023/05/27 05:59:21;;;;;;;;;;;;;;;15.47;57.55;98958.88;7377503;19;19935;-78
2023/05/27 06:01:48;;;;;;;;;;;;;;;15.52;56.88;98953.84;7385407;19;19923;-79
2023/05/27 06:04:17;;;;;;;;;;;;;;;15.61;57.02;98958.13;7373607;19;19927;-80
2023/05/27 06:06:46;;;;;;;;;;;;;;;15.64;56.62;98962.28;7379386;19;20011;-79
2023/05/27 06:09:31;;;;;;;;;;;;;;;15.71;56.42;98961.44;7388204;19;19935;-79
2023/05/27 06:12:02;;;;;;;;;;;;;;;15.84;57.02;98952.06;7390356;19;19978;-78
2023/05/27 06:14:36;;;;;;;;;;;;;;;15.79;57.07;98961.41;7390156;19;19919;-82
2023/05/27 06:17:03;;;;;;;;;;;;;;;15.86;55.41;98950.06;7390204;19;19927;-79
2023/05/27 06:19:30;;;;;;;;;;;;;;;15.84;56.45;98949.38;7390146;19;20273;-81
2023/05/27 06:21:58;;;;;;;;;;;;;;;16.00;56.62;98947.44;7390647;19;19929;-79
2023/05/27 06:24:27;;;;;;;;;;;;;;;16.05;55.20;98954.09;7384326;19;19927;-80
2023/05/27 06:27:04;;;;;;;;;;;;;;;16.06;55.86;98951.25;7385614;19;19918;-78
2023/05/27 06:29:31;;;;;;;;;;;;;;;16.08;55.05;98943.88;7388904;19;20353;-81
2023/05/27 06:31:58;;;;;;;;;;;;;;;16.20;55.20;98947.81;7388539;19;19963;-79
2023/05/27 06:34:25;;;;;;;;;;;;;;;16.23;55.05;98947.47;7386930;19;20241;-80
2023/05/27 06:36:54;;;;;;;;;;;;;;;16.32;56.53;98944.72;7392873;19;19922;-82
2023/05/27 06:39:22;;;;;;;;;;;;;;;16.30;55.64;98947.59;7385811;19;19923;-81
2023/05/27 06:41:49;;;;;;;;;;;;;;;16.25;54.78;98941.94;7387467;19;19939;-78
2023/05/27 06:44:38;;;;;;;;;;;;;;;16.42;55.19;98939.97;7387047;19;19907;-80
2023/05/27 06:47:16;;;;;;;;;;;;;;;16.37;53.24;98940.50;7386938;19;19918;-79
2023/05/27 06:49:43;;;;;;;;;;;;;;;16.57;53.82;98946.19;7390574;19;19911;-80
2023/05/27 06:52:13;;;;;;;;;;;;;;;16.68;55.17;98943.09;7376005;19;20314;-82
2023/05/27 06:55:01;;;;;;;;;;;;;;;16.72;53.81;98953.41;7383845;19;19927;-81
2023/05/27 06:57:47;;;;;;;;;;;;;;;16.81;56.11;98952.38;7385395;19;19921;-82
2023/05/27 07:00:19;;;;;;;;;;;;;;;16.89;54.13;98952.28;7377818;19;19927;-79
2023/05/27 07:03:03;;;;;;;;;;;;;;;16.93;52.62;98944.72;7384235;19;19930;-83
2023/05/27 07:05:30;;;;;;;;;;;;;;;16.97;53.25;98944.19;7379942;19;19923;-83
2023/05/27 07:07:57;;;;;;;;;;;;;;;17.05;53.65;98940.59;7380684;19;19926;-80
2023/05/27 07:10:24;;;;;;;;;;;;;;;17.16;53.47;98941.97;7381774;19;19958;-83
2023/05/27 07:12:51;;;;;;;;;;;;;;;17.24;55.04;98937.38;7380879;19;20322;-81
2023/05/27 07:15:27;;;;;;;;;;;;;;;17.27;54.92;98946.84;7377268;19;19923;-80
2023/05/27 07:17:55;;;;;;;;;;;;;;;17.35;55.19;98941.41;7381209;19;20351;-81
2023/05/27 07:20:23;;;;;;;;;;;;;;;17.37;51.81;98939.38;7376887;19;20389;-79
2023/05/27 07:22:49;;;;;;;;;;;;;;;17.51;53.43;98941.25;7380652;19;19927;-80
2023/05/27 07:25:17;;;;;;;;;;;;;;;17.52;53.09;98937.53;7383252;19;19929;-82
2023/05/27 07:27:43;;;;;;;;;;;;;;;17.66;54.33;98932.34;7381349;19;19917;-81
2023/05/27 07:30:10;;;;;;;;;;;;;;;17.69;53.13;98940.00;7382633;19;20234;-80
2023/05/27 07:32:43;;;;;;;;;;;;;;;17.81;54.83;98930.50;7381008;19;19966;-81
2023/05/27 07:35:12;;;;;;;;;;;;;;;17.84;53.47;98938.16;7381555;19;19927;-80
2023/05/27 07:37:39;;;;;;;;;;;;;;;17.90;51.62;98931.22;7382852;19;19929;-80
2023/05/27 07:40:12;;;;;;;;;;;;;;;17.91;53.45;98927.53;7385373;19;19923;-81
2023/05/27 07:42:39;;;;;;;;;;;;;;;17.91;51.35;98924.84;7376276;19;19914;-83
2023/05/27 07:45:09;;;;;;;;;;;;;;;17.96;52.15;98928.63;7381365;19;19922;-85
2023/05/27 07:47:47;;;;;;;;;;;;;;;18.07;53.29;98931.81;7378476;19;19994;-82
2023/05/27 07:50:15;;;;;;;;;;;;;;;18.10;51.29;98932.25;7378313;19;19922;-79
2023/05/27 07:52:52;;;;;;;;;;;;;;;18.10;50.44;98928.75;7377382;19;19937;-81
2023/05/27 07:55:22;;;;;;;;;;;;;;;18.10;51.03;98926.91;7374790;19;19915;-78
2023/05/27 07:57:49;;;;;;;;;;;;;;;18.13;51.12;98918.47;7379487;19;19911;-82
2023/05/27 08:00:16;;;;;;;;;;;;;;;18.18;50.79;98920.59;7376247;19;19918;-81
2023/05/27 08:02:53;;;;;;;;;;;;;;;18.34;50.40;98914.97;7374704;19;19922;-79
2023/05/27 08:05:37;;;;;;;;;;;;;;;18.50;53.49;98913.03;7369654;19;19927;-80
2023/05/27 08:08:27;;;;;;;;;;;;;;;18.54;51.73;98919.69;7380218;19;19972;-82
2023/05/27 08:11:18;;;;;;;;;;;;;;;18.61;53.42;98915.19;7379742;19;20392;-81
2023/05/27 08:13:59;;;;;;;;;;;;;;;18.44;48.86;98903.94;7382676;19;19926;-82
2023/05/27 08:16:38;;;;;;;;;;;;;;;18.59;49.34;98903.84;7377994;19;20287;-79
2023/05/27 08:19:20;;;;;;;;;;;;;;;18.69;53.32;98907.00;7371614;19;19911;-80
2023/05/27 08:22:11;;;;;;;;;;;;;;;18.75;52.90;98903.59;7375110;19;19911;-79
2023/05/27 08:24:51;;;;;;;;;;;;;;;18.87;51.67;98898.50;7382133;19;19914;-83
2023/05/27 08:27:52;;;;;;;;;;;;;;;18.93;50.31;98897.75;7382325;19;19926;-79
2023/05/27 08:30:29;;;;;;;;;;;;;;;19.08;52.19;98894.91;7384655;19;19929;-81
2023/05/27 08:33:05;;;;;;;;;;;;;;;19.12;51.17;98893.50;7378927;19;19915;-81
2023/05/27 08:35:31;;;;;;;;;;;;;;;19.18;51.86;98892.72;7376364;19;19915;-81
2023/05/27 08:37:58;;;;;;;;;;;;;;;19.30;50.17;98890.31;7376041;19;19930;-78
2023/05/27 08:40:30;;;;;;;;;;;;;;;19.38;49.29;98883.91;7375728;19;19919;-83
2023/05/27 08:42:58;;;;;;;;;;;;;;;19.33;47.86;98883.72;7379270;19;19915;-79
2023/05/27 08:45:25;;;;;;;;;;;;;;;19.43;49.93;98887.69;7374756;19;19939;-80
2023/05/27 08:47:52;;;;;;;;;;;;;;;19.44;50.68;98883.97;7379392;19;19925;-83
2023/05/27 08:50:24;;;;;;;;;;;;;;;19.52;49.68;98874.91;7379184;19;19919;-83
2023/05/27 08:52:54;;;;;;;;;;;;;;;19.64;49.55;98876.00;7376367;19;19919;-81
2023/05/27 08:55:23;;;;;;;;;;;;;;;19.65;46.86;98874.94;7376165;19;19942;-80
2023/05/27 08:57:55;;;;;;;;;;;;;;;19.81;49.85;98868.41;7372871;19;20325;-82
2023/05/27 09:00:25;;;;;;;;;;;;;;;19.84;49.63;98864.50;7377523;19;19914;-80
2023/05/27 09:02:59;;;;;;;;;;;;;;;19.93;50.02;98865.94;7377384;19;19918;-79
2023/05/27 09:05:33;;;;;;;;;;;;;;;20.01;48.41;98872.97;7377965;19;20395;-84
2023/05/27 09:08:00;;;;;;;;;;;;;;;20.11;50.03;98870.72;7382356;19;19914;-81
2023/05/27 09:10:36;;;;;;;;;;;;;;;20.15;48.56;98871.97;7379171;19;19923;-83
2023/05/27 09:13:03;;;;;;;;;;;;;;;20.24;46.29;98857.31;7375477;19;19923;-77
2023/05/27 09:15:31;;;;;;;;;;;;;;;20.28;46.15;98857.75;7378086;19;19936;-79
2023/05/27 09:17:57;;;;;;;;;;;;;;;20.32;45.38;98851.72;7383939;19;19919;-82
2023/05/27 09:20:25;;;;;;;;;;;;;;;20.43;48.98;98861.03;7379603;19;19946;-81
2023/05/27 09:23:00;;;;;;;;;;;;;;;20.58;48.16;98864.34;7378769;19;20216;-83
2023/05/27 09:25:27;;;;;;;;;;;;;;;20.44;49.23;98856.50;7379511;19;19919;-83
2023/05/27 09:27:54;;;;;;;;;;;;;;;20.59;48.79;98849.91;7384505;19;19914;-83
2023/05/27 09:30:21;;;;;;;;;;;;;;;20.73;48.69;98849.88;7386684;19;19953;-79
2023/05/27 09:32:48;;;;;;;;;;;;;;;20.65;46.91;98842.03;7377345;19;19915;-80
2023/05/27 09:35:15;;;;;;;;;;;;;;;20.71;47.15;98843.88;7383678;19;20143;-80
2023/05/27 09:37:45;;;;;;;;;;;;;;;21.11;46.15;98846.47;7382640;19;20435;-84
2023/05/27 09:40:12;;;;;;;;;;;;;;;21.39;44.41;98838.94;7385223;19;19919;-82
2023/05/27 09:42:49;;;;;;;;;;;;;;;21.60;44.99;98839.66;7378272;19;19943;-78
2023/05/27 09:45:19;;;;;;;;;;;;;;;21.63;43.01;98837.34;7379148;19;19929;-82
2023/05/27 09:47:52;;;;;;;;;;;;;;;21.92;45.03;98835.09;7375688;19;19930;-79
2023/05/27 09:50:20;;;;;;;;;;;;;;;22.12;43.29;98827.69;7384678;19;19922;-83
2023/05/27 09:52:47;;;;;;;;;;;;;;;22.61;44.55;98837.88;7377315;19;19911;-81
2023/05/27 09:55:31;;;;;;;;;;;;;;;22.85;42.75;98825.41;7380201;19;20098;-81
2023/05/27 09:57:57;;;;;;;;;;;;;;;23.17;41.97;98824.25;7380637;19;19943;-80
2023/05/27 10:00:24;;;;;;;;;;;;;;;23.66;41.69;98818.81;7374023;19;20288;-83
2023/05/27 10:02:51;;;;;;;;;;;;;;;23.76;40.22;98815.59;7376834;19;19929;-82
2023/05/27 10:05:20;;;;;;;;;;;;;;;24.16;41.38;98818.50;7376848;19;20005;-83
2023/05/27 10:07:47;;;;;;;;;;;;;;;24.32;39.71;98816.97;7375888;19;20624;-83
2023/05/27 10:10:34;;;;;;;;;;;;;;;24.62;37.62;98811.50;7379244;19;19922;-79
2023/05/27 10:13:01;;;;;;;;;;;;;;;24.64;38.63;98803.94;7380942;19;19940;-81
2023/05/27 10:15:28;;;;;;;;;;;;;;;24.43;38.42;98816.16;7377119;19;20012;-83
2023/05/27 10:17:55;;;;;;;;;;;;;;;24.77;38.25;98805.59;7379288;19;19922;-80
2023/05/27 10:20:37;;;;;;;;;;;;;;;24.78;37.94;98806.41;7380100;19;19919;-82
2023/05/27 10:23:11;;;;;;;;;;;;;;;24.75;37.42;98810.44;7377669;19;19997;-82
2023/05/27 10:25:48;;;;;;;;;;;;;;;24.72;37.53;98791.94;7379463;19;19919;-82
2023/05/27 10:28:27;;;;;;;;;;;;;;;24.89;38.13;98798.28;7383357;19;19919;-83
2023/05/27 10:31:04;;;;;;;;;;;;;;;25.00;39.32;98801.19;7383030;19;19923;-80
2023/05/27 10:33:35;;;;;;;;;;;;;;;24.94;36.06;98795.69;7374026;19;20195;-82
2023/05/27 10:36:04;;;;;;;;;;;;;;;24.63;36.50;98793.38;7375795;19;19915;-81
2023/05/27 10:38:31;;;;;;;;;;;;;;;24.38;39.44;98786.31;7377072;19;19982;-77
2023/05/27 10:41:01;;;;;;;;;;;;;;;24.27;37.22;98781.69;7379141;19;20257;-81
2023/05/27 10:43:29;;;;;;;;;;;;;;;24.09;40.12;98791.59;7374618;19;19928;-85
2023/05/27 10:46:03;;;;;;;;;;;;;;;23.51;38.72;98786.81;7377380;19;19923;-81
2023/05/27 10:48:30;;;;;;;;;;;;;;;23.26;39.57;98789.66;7380091;19;19955;-79
2023/05/27 10:50:57;;;;;;;;;;;;;;;23.19;40.92;98787.03;7380961;19;20716;-83
2023/05/27 10:53:27;;;;;;;;;;;;;;;23.20;40.31;98779.78;7376628;19;19914;-77
2023/05/27 10:55:54;;;;;;;;;;;;;;;23.23;40.25;98779.31;7381852;19;19944;-80
2023/05/27 10:58:21;;;;;;;;;;;;;;;23.16;36.79;98773.16;7384553;19;20459;-86
2023/05/27 11:00:49;;;;;;;;;;;;;;;23.09;40.71;98767.88;7386537;19;20271;-82
2023/05/27 11:03:17;;;;;;;;;;;;;;;23.10;41.01;98769.50;7384881;19;19933;-80
2023/05/27 11:05:44;;;;;;;;;;;;;;;23.10;41.33;98766.00;7378896;19;19925;-82
2023/05/27 11:08:13;;;;;;;;;;;;;;;23.00;40.45;98769.22;7373820;19;19919;-79
2023/05/27 11:10:42;;;;;;;;;;;;;;;23.05;40.17;98766.66;7373332;19;19935;-80
2023/05/27 11:13:10;;;;;;;;;;;;;;;23.01;40.76;98762.75;7377114;19;19962;-80
2023/05/27 11:15:39;;;;;;;;;;;;;;;22.95;42.28;98772.56;7377077;19;19919;-82
2023/05/27 11:18:07;;;;;;;;;;;;;;;23.02;42.08;98774.41;7379119;19;19931;-81
2023/05/27 11:20:36;;;;;;;;;;;;;;;23.01;41.40;98762.75;7376649;19;20794;-80
2023/05/27 11:23:03;;;;;;;;;;;;;;;23.07;41.30;98763.75;7379095;19;20336;-78
2023/05/27 11:25:40;;;;;;;;;;;;;;;23.00;41.30;98764.63;7384949;19;19910;-82
2023/05/27 11:28:16;;;;;;;;;;;;;;;22.98;40.57;98757.81;7383288;19;19931;-79
2023/05/27 11:30:43;;;;;;;;;;;;;;;23.04;40.81;98759.63;7378551;19;19918;-82
2023/05/27 11:33:11;;;;;;;;;;;;;;;23.07;40.68;98744.88;7378747;19;20613;-79
2023/05/27 11:36:07;;;;;;;;;;;;;;;23.15;40.55;98737.25;7383762;19;19943;-79
2023/05/27 11:38:51;;;;;;;;;;;;;;;23.21;40.32;98738.22;7384313;19;19927;-86
2023/05/27 11:41:18;;;;;;;;;;;;;;;23.16;39.62;98730.81;7390122;19;19943;-83
2023/05/27 11:43:54;;;;;;;;;;;;;;;23.07;40.47;98724.09;7384935;19;19950;-82
2023/05/27 11:46:21;;;;;;;;;;;;;;;23.12;41.02;98721.53;7382509;19;19983;-82
2023/05/27 11:48:48;;;;;;;;;;;;;;;23.23;41.34;98731.53;7389530;19;20009;-77
2023/05/27 11:51:15;;;;;;;;;;;;;;;23.24;40.26;98721.56;7390470;19;19915;-82
2023/05/27 11:53:45;;;;;;;;;;;;;;;23.34;41.37;98721.84;7371639;19;19926;-86
2023/05/27 11:56:14;;;;;;;;;;;;;;;23.23;38.07;98726.16;7367603;19;19935;-80
2023/05/27 11:58:44;;;;;;;;;;;;;;;23.32;38.78;98721.25;7367220;19;19921;-83
2023/05/27 12:01:11;;;;;;;;;;;;;;;23.27;41.64;98713.00;7376194;19;19943;-81
2023/05/27 12:03:41;;;;;;;;;;;;;;;23.35;38.47;98712.66;7377750;19;19923;-76
2023/05/27 12:06:08;;;;;;;;;;;;;;;23.47;37.51;98698.41;7390708;19;19922;-81
2023/05/27 12:08:34;;;;;;;;;;;;;;;23.50;38.22;98693.34;7388442;19;20989;-79
2023/05/27 12:11:01;;;;;;;;;;;;;;;23.65;36.74;98685.63;7385109;19;19943;-80
2023/05/27 12:13:29;;;;;;;;;;;;;;;23.85;40.27;98696.13;7382391;19;19987;-77
2023/05/27 12:15:56;;;;;;;;;;;;;;;24.17;37.69;98685.00;7386865;19;19923;-79
2023/05/27 12:18:23;;;;;;;;;;;;;;;24.26;36.32;98680.03;7384810;19;19919;-77
2023/05/27 12:20:49;;;;;;;;;;;;;;;24.26;34.41;98680.84;7389234;19;19998;-79
2023/05/27 12:23:18;;;;;;;;;;;;;;;24.20;36.11;98664.78;7385729;19;19923;-78
2023/05/27 12:25:45;;;;;;;;;;;;;;;24.03;39.35;98667.34;7383363;19;19937;-79
2023/05/27 12:28:12;;;;;;;;;;;;;;;23.86;37.25;98670.78;7387188;19;19994;-80
2023/05/27 12:30:39;;;;;;;;;;;;;;;23.83;35.15;98665.03;7383510;19;19915;-82
2023/05/27 12:33:08;;;;;;;;;;;;;;;23.85;36.23;98657.47;7381804;19;19989;-81
2023/05/27 12:35:35;;;;;;;;;;;;;;;23.87;36.86;98655.38;7385476;19;19914;-85
2023/05/27 12:38:03;;;;;;;;;;;;;;;23.91;38.73;98658.41;7381817;19;19937;-82
2023/05/27 12:40:32;;;;;;;;;;;;;;;23.85;39.43;98652.06;7386960;19;19919;-81
2023/05/27 12:43:05;;;;;;;;;;;;;;;23.84;39.28;98647.75;7384963;19;19914;-82
2023/05/27 12:45:32;;;;;;;;;;;;;;;23.75;36.27;98649.97;7383261;19;19994;-79
2023/05/27 12:47:59;;;;;;;;;;;;;;;23.88;38.63;98647.03;7381398;19;19963;-81
2023/05/27 12:50:26;;;;;;;;;;;;;;;23.87;37.98;98649.97;7396994;19;19914;-78
2023/05/27 12:52:53;;;;;;;;;;;;;;;23.82;39.33;98649.84;7383133;19;20398;-78
2023/05/27 12:55:21;;;;;;;;;;;;;;;23.96;38.50;98653.97;7387829;19;19926;-79
2023/05/27 12:57:49;;;;;;;;;;;;;;;24.08;37.98;98652.06;7379090;19;20715;-79
2023/05/27 13:00:16;;;;;;;;;;;;;;;24.02;38.36;98647.63;7382874;19;20007;-76